sensor_id;sensor_type;location;lat;lon;timestamp;temperature;humidity
75500;DHT22;64076;51.466;7.260;2023-04-25T00:00:41;21.90;35.40
75500;DHT22;64076;51.466;7.260;2023-04-25T00:03:07;21.90;35.40
75500;DHT22;64076;51.466;7.260;2023-04-25T00:05:34;21.90;35.40
75500;DHT22;64076;51.466;7.260;2023-04-25T00:08:02;21.90;35.40
75500;DHT22;64076;51.466;7.260;2023-04-25T00:10:28;21.90;35.40
75500;DHT22;64076;51.466;7.260;2023-04-25T00:12:53;21.80;35.40
75500;DHT22;64076;51.466;7.260;2023-04-25T00:15:19;21.80;35.40
75500;DHT22;64076;51.466;7.260;2023-04-25T00:17:45;21.90;35.40
75500;DHT22;64076;51.466;7.260;2023-04-25T00:20:11;21.90;35.40
75500;DHT22;64076;51.466;7.260;2023-04-25T00:22:37;21.80;35.50
75500;DHT22;64076;51.466;7.260;2023-04-25T00:25:04;21.80;35.50
75500;DHT22;64076;51.466;7.260;2023-04-25T00:27:30;21.80;35.50
75500;DHT22;64076;51.466;7.260;2023-04-25T00:29:56;21.80;35.50
75500;DHT22;64076;51.466;7.260;2023-04-25T00:34:47;21.80;35.50
75500;DHT22;64076;51.466;7.260;2023-04-25T00:37:12;21.80;35.40
75500;DHT22;64076;51.466;7.260;2023-04-25T00:39:38;21.80;35.50
75500;DHT22;64076;51.466;7.260;2023-04-25T00:42:04;21.80;35.50
75500;DHT22;64076;51.466;7.260;2023-04-25T00:44:31;21.80;35.50
75500;DHT22;64076;51.466;7.260;2023-04-25T00:46:57;21.80;35.50
75500;DHT22;64076;51.466;7.260;2023-04-25T00:49:23;21.80;35.50
75500;DHT22;64076;51.466;7.260;2023-04-25T00:51:48;21.80;35.50
75500;DHT22;64076;51.466;7.260;2023-04-25T00:54:14;21.80;35.50
75500;DHT22;64076;51.466;7.260;2023-04-25T00:56:41;21.80;35.50
75500;DHT22;64076;51.466;7.260;2023-04-25T00:59:10;21.80;35.50
75500;DHT22;64076;51.466;7.260;2023-04-25T01:01:36;21.80;35.50
75500;DHT22;64076;51.466;7.260;2023-04-25T01:04:03;21.80;35.50
75500;DHT22;64076;51.466;7.260;2023-04-25T01:06:28;21.80;35.50
75500;DHT22;64076;51.466;7.260;2023-04-25T01:08:54;21.80;35.50
75500;DHT22;64076;51.466;7.260;2023-04-25T01:11:19;21.80;35.60
75500;DHT22;64076;51.466;7.260;2023-04-25T01:13:45;21.80;35.60
75500;DHT22;64076;51.466;7.260;2023-04-25T01:16:11;21.70;35.60
75500;DHT22;64076;51.466;7.260;2023-04-25T01:18:38;21.70;35.60
75500;DHT22;64076;51.466;7.260;2023-04-25T01:21:09;21.70;35.60
75500;DHT22;64076;51.466;7.260;2023-04-25T01:23:36;21.70;35.60
75500;DHT22;64076;51.466;7.260;2023-04-25T01:26:02;21.80;35.60
75500;DHT22;64076;51.466;7.260;2023-04-25T01:28:28;21.80;35.60
75500;DHT22;64076;51.466;7.260;2023-04-25T01:30:54;21.70;35.60
75500;DHT22;64076;51.466;7.260;2023-04-25T01:33:21;21.70;35.70
75500;DHT22;64076;51.466;7.260;2023-04-25T01:35:46;21.70;35.70
75500;DHT22;64076;51.466;7.260;2023-04-25T01:38:13;21.70;35.70
75500;DHT22;64076;51.466;7.260;2023-04-25T01:40:40;21.70;35.70
75500;DHT22;64076;51.466;7.260;2023-04-25T01:43:07;21.70;35.70
75500;DHT22;64076;51.466;7.260;2023-04-25T01:45:33;21.70;35.70
75500;DHT22;64076;51.466;7.260;2023-04-25T01:48:04;21.70;35.80
75500;DHT22;64076;51.466;7.260;2023-04-25T01:50:30;21.70;35.80
75500;DHT22;64076;51.466;7.260;2023-04-25T01:52:56;21.70;35.80
75500;DHT22;64076;51.466;7.260;2023-04-25T01:55:22;21.70;35.80
75500;DHT22;64076;51.466;7.260;2023-04-25T01:57:47;21.70;35.80
75500;DHT22;64076;51.466;7.260;2023-04-25T02:00:13;21.70;35.90
75500;DHT22;64076;51.466;7.260;2023-04-25T02:02:39;21.70;35.90
75500;DHT22;64076;51.466;7.260;2023-04-25T02:05:05;21.70;35.90
75500;DHT22;64076;51.466;7.260;2023-04-25T02:07:30;21.70;35.90
75500;DHT22;64076;51.466;7.260;2023-04-25T02:09:57;21.70;35.90
75500;DHT22;64076;51.466;7.260;2023-04-25T02:12:22;21.70;36.00
75500;DHT22;64076;51.466;7.260;2023-04-25T02:14:48;21.70;36.00
75500;DHT22;64076;51.466;7.260;2023-04-25T02:17:13;21.70;35.90
75500;DHT22;64076;51.466;7.260;2023-04-25T02:19:39;21.70;36.00
75500;DHT22;64076;51.466;7.260;2023-04-25T02:22:05;21.70;36.00
75500;DHT22;64076;51.466;7.260;2023-04-25T02:24:30;21.70;36.00
75500;DHT22;64076;51.466;7.260;2023-04-25T02:26:57;21.70;36.00
75500;DHT22;64076;51.466;7.260;2023-04-25T02:29:23;21.70;36.00
75500;DHT22;64076;51.466;7.260;2023-04-25T02:31:48;21.70;36.10
75500;DHT22;64076;51.466;7.260;2023-04-25T02:34:14;21.70;36.10
75500;DHT22;64076;51.466;7.260;2023-04-25T02:36:39;21.70;36.00
75500;DHT22;64076;51.466;7.260;2023-04-25T02:39:05;21.70;36.10
75500;DHT22;64076;51.466;7.260;2023-04-25T02:41:31;21.70;36.10
75500;DHT22;64076;51.466;7.260;2023-04-25T02:43:56;21.70;36.10
75500;DHT22;64076;51.466;7.260;2023-04-25T02:46:22;21.70;36.10
75500;DHT22;64076;51.466;7.260;2023-04-25T02:48:48;21.70;36.10
75500;DHT22;64076;51.466;7.260;2023-04-25T02:51:13;21.70;36.20
75500;DHT22;64076;51.466;7.260;2023-04-25T02:53:39;21.70;36.10
75500;DHT22;64076;51.466;7.260;2023-04-25T02:56:05;21.70;36.10
75500;DHT22;64076;51.466;7.260;2023-04-25T02:58:30;21.70;36.10
75500;DHT22;64076;51.466;7.260;2023-04-25T03:00:56;21.70;36.20
75500;DHT22;64076;51.466;7.260;2023-04-25T03:03:21;21.70;36.20
75500;DHT22;64076;51.466;7.260;2023-04-25T03:05:50;21.70;36.20
75500;DHT22;64076;51.466;7.260;2023-04-25T03:08:17;21.70;36.20
75500;DHT22;64076;51.466;7.260;2023-04-25T03:10:43;21.70;36.20
75500;DHT22;64076;51.466;7.260;2023-04-25T03:13:16;21.60;36.20
75500;DHT22;64076;51.466;7.260;2023-04-25T03:15:42;21.70;36.20
75500;DHT22;64076;51.466;7.260;2023-04-25T03:18:07;21.60;36.20
75500;DHT22;64076;51.466;7.260;2023-04-25T03:20:33;21.70;36.20
75500;DHT22;64076;51.466;7.260;2023-04-25T03:22:58;21.70;36.30
75500;DHT22;64076;51.466;7.260;2023-04-25T03:25:24;21.60;36.20
75500;DHT22;64076;51.466;7.260;2023-04-25T03:27:49;21.60;36.30
75500;DHT22;64076;51.466;7.260;2023-04-25T03:30:15;21.70;36.30
75500;DHT22;64076;51.466;7.260;2023-04-25T03:32:40;21.60;36.30
75500;DHT22;64076;51.466;7.260;2023-04-25T03:35:06;21.60;36.30
75500;DHT22;64076;51.466;7.260;2023-04-25T03:37:32;21.60;36.30
75500;DHT22;64076;51.466;7.260;2023-04-25T03:39:57;21.60;36.30
75500;DHT22;64076;51.466;7.260;2023-04-25T03:42:23;21.60;36.30
75500;DHT22;64076;51.466;7.260;2023-04-25T03:44:49;21.60;36.30
75500;DHT22;64076;51.466;7.260;2023-04-25T03:47:15;21.60;36.30
75500;DHT22;64076;51.466;7.260;2023-04-25T03:49:41;21.60;36.30
75500;DHT22;64076;51.466;7.260;2023-04-25T03:52:06;21.60;36.40
75500;DHT22;64076;51.466;7.260;2023-04-25T03:54:32;21.60;36.40
75500;DHT22;64076;51.466;7.260;2023-04-25T03:56:58;21.60;36.40
75500;DHT22;64076;51.466;7.260;2023-04-25T03:59:23;21.60;36.40
75500;DHT22;64076;51.466;7.260;2023-04-25T04:01:50;21.60;36.40
75500;DHT22;64076;51.466;7.260;2023-04-25T04:04:15;21.60;36.40
75500;DHT22;64076;51.466;7.260;2023-04-25T04:06:41;21.60;36.50
75500;DHT22;64076;51.466;7.260;2023-04-25T04:09:07;21.60;36.50
75500;DHT22;64076;51.466;7.260;2023-04-25T04:11:36;21.60;36.50
75500;DHT22;64076;51.466;7.260;2023-04-25T04:14:06;21.60;36.50
75500;DHT22;64076;51.466;7.260;2023-04-25T04:16:32;21.60;36.50
75500;DHT22;64076;51.466;7.260;2023-04-25T04:18:58;21.60;36.50
75500;DHT22;64076;51.466;7.260;2023-04-25T04:21:23;21.60;36.50
75500;DHT22;64076;51.466;7.260;2023-04-25T04:23:49;21.60;36.60
75500;DHT22;64076;51.466;7.260;2023-04-25T04:26:15;21.60;36.50
75500;DHT22;64076;51.466;7.260;2023-04-25T04:28:42;21.50;36.60
75500;DHT22;64076;51.466;7.260;2023-04-25T04:31:09;21.50;36.60
75500;DHT22;64076;51.466;7.260;2023-04-25T04:33:35;21.50;36.50
75500;DHT22;64076;51.466;7.260;2023-04-25T04:36:02;21.50;36.50
75500;DHT22;64076;51.466;7.260;2023-04-25T04:38:28;21.50;36.60
75500;DHT22;64076;51.466;7.260;2023-04-25T04:40:54;21.50;36.50
75500;DHT22;64076;51.466;7.260;2023-04-25T04:43:20;21.50;36.50
75500;DHT22;64076;51.466;7.260;2023-04-25T04:45:45;21.50;36.50
75500;DHT22;64076;51.466;7.260;2023-04-25T04:48:11;21.50;36.50
75500;DHT22;64076;51.466;7.260;2023-04-25T04:50:39;21.50;36.40
75500;DHT22;64076;51.466;7.260;2023-04-25T04:53:05;21.50;36.40
75500;DHT22;64076;51.466;7.260;2023-04-25T04:55:31;21.50;36.40
75500;DHT22;64076;51.466;7.260;2023-04-25T04:57:56;21.50;36.40
75500;DHT22;64076;51.466;7.260;2023-04-25T05:00:22;21.50;36.40
75500;DHT22;64076;51.466;7.260;2023-04-25T05:02:48;21.50;36.30
75500;DHT22;64076;51.466;7.260;2023-04-25T05:05:13;21.50;36.30
75500;DHT22;64076;51.466;7.260;2023-04-25T05:07:39;21.50;36.30
75500;DHT22;64076;51.466;7.260;2023-04-25T05:10:05;21.50;36.30
75500;DHT22;64076;51.466;7.260;2023-04-25T05:12:31;21.50;36.30
75500;DHT22;64076;51.466;7.260;2023-04-25T05:14:57;21.50;36.00
75500;DHT22;64076;51.466;7.260;2023-04-25T05:17:22;21.40;35.80
75500;DHT22;64076;51.466;7.260;2023-04-25T05:19:48;21.40;35.70
75500;DHT22;64076;51.466;7.260;2023-04-25T05:22:13;21.40;35.60
75500;DHT22;64076;51.466;7.260;2023-04-25T05:24:39;21.40;35.50
75500;DHT22;64076;51.466;7.260;2023-04-25T05:27:04;21.40;35.40
75500;DHT22;64076;51.466;7.260;2023-04-25T05:29:31;21.40;35.40
75500;DHT22;64076;51.466;7.260;2023-04-25T05:31:56;21.40;35.30
75500;DHT22;64076;51.466;7.260;2023-04-25T05:34:22;21.40;35.30
75500;DHT22;64076;51.466;7.260;2023-04-25T05:36:47;21.40;35.30
75500;DHT22;64076;51.466;7.260;2023-04-25T05:39:17;21.40;35.20
75500;DHT22;64076;51.466;7.260;2023-04-25T05:41:43;21.50;35.20
75500;DHT22;64076;51.466;7.260;2023-04-25T05:44:09;21.50;35.20
75500;DHT22;64076;51.466;7.260;2023-04-25T05:46:35;21.50;35.20
75500;DHT22;64076;51.466;7.260;2023-04-25T05:49:00;21.50;35.10
75500;DHT22;64076;51.466;7.260;2023-04-25T05:51:26;21.50;35.20
75500;DHT22;64076;51.466;7.260;2023-04-25T05:53:53;21.50;35.20
75500;DHT22;64076;51.466;7.260;2023-04-25T05:56:18;21.60;35.30
75500;DHT22;64076;51.466;7.260;2023-04-25T05:58:44;21.60;35.30
75500;DHT22;64076;51.466;7.260;2023-04-25T06:01:09;21.60;35.30
75500;DHT22;64076;51.466;7.260;2023-04-25T06:03:35;21.60;35.40
75500;DHT22;64076;51.466;7.260;2023-04-25T06:06:00;21.70;35.50
75500;DHT22;64076;51.466;7.260;2023-04-25T06:08:26;21.70;35.50
75500;DHT22;64076;51.466;7.260;2023-04-25T06:10:51;21.70;35.50
75500;DHT22;64076;51.466;7.260;2023-04-25T06:13:17;21.70;35.50
75500;DHT22;64076;51.466;7.260;2023-04-25T06:15:42;21.80;35.50
75500;DHT22;64076;51.466;7.260;2023-04-25T06:18:08;21.80;35.50
75500;DHT22;64076;51.466;7.260;2023-04-25T06:20:34;21.80;35.50
75500;DHT22;64076;51.466;7.260;2023-04-25T06:22:59;21.80;35.50
75500;DHT22;64076;51.466;7.260;2023-04-25T06:25:25;21.90;35.50
75500;DHT22;64076;51.466;7.260;2023-04-25T06:27:51;21.90;35.50
75500;DHT22;64076;51.466;7.260;2023-04-25T06:30:16;21.90;35.50
75500;DHT22;64076;51.466;7.260;2023-04-25T06:32:47;21.90;35.50
75500;DHT22;64076;51.466;7.260;2023-04-25T06:35:13;21.90;35.40
75500;DHT22;64076;51.466;7.260;2023-04-25T06:37:38;21.90;35.40
75500;DHT22;64076;51.466;7.260;2023-04-25T06:40:04;22.00;35.40
75500;DHT22;64076;51.466;7.260;2023-04-25T16:41:05;22.00;35.30
75500;DHT22;64076;51.466;7.260;2023-04-25T16:43:30;22.60;28.00
75500;DHT22;64076;51.466;7.260;2023-04-25T16:45:56;22.60;28.10
75500;DHT22;64076;51.466;7.260;2023-04-25T17:15:14;22.60;28.10
75500;DHT22;64076;51.466;7.260;2023-04-25T17:17:40;22.50;28.70
75500;DHT22;64076;51.466;7.260;2023-04-25T17:20:07;22.50;28.70
75500;DHT22;64076;51.466;7.260;2023-04-25T17:22:34;22.50;28.80
75500;DHT22;64076;51.466;7.260;2023-04-25T17:25:04;22.50;28.90
75500;DHT22;64076;51.466;7.260;2023-04-25T17:27:31;22.50;28.90
75500;DHT22;64076;51.466;7.260;2023-04-25T17:29:57;22.50;28.90
75500;DHT22;64076;51.466;7.260;2023-04-25T17:32:22;22.50;29.00
75500;DHT22;64076;51.466;7.260;2023-04-25T17:34:48;22.40;29.00
75500;DHT22;64076;51.466;7.260;2023-04-25T17:37:14;22.50;29.00
75500;DHT22;64076;51.466;7.260;2023-04-25T17:39:42;22.40;29.00
75500;DHT22;64076;51.466;7.260;2023-04-25T17:42:08;22.40;29.10
75500;DHT22;64076;51.466;7.260;2023-04-25T17:44:34;22.40;29.10
75500;DHT22;64076;51.466;7.260;2023-04-25T17:47:00;22.40;29.20
75500;DHT22;64076;51.466;7.260;2023-04-25T17:49:26;22.40;29.10
75500;DHT22;64076;51.466;7.260;2023-04-25T17:51:52;22.40;29.10
75500;DHT22;64076;51.466;7.260;2023-04-25T17:54:17;22.40;29.20
75500;DHT22;64076;51.466;7.260;2023-04-25T17:56:46;22.40;29.20
75500;DHT22;64076;51.466;7.260;2023-04-25T17:59:12;22.40;29.20
75500;DHT22;64076;51.466;7.260;2023-04-25T18:01:38;22.40;29.30
75500;DHT22;64076;51.466;7.260;2023-04-25T18:04:04;22.40;29.20
75500;DHT22;64076;51.466;7.260;2023-04-25T18:06:30;22.40;29.30
75500;DHT22;64076;51.466;7.260;2023-04-25T18:08:57;22.40;29.30
75500;DHT22;64076;51.466;7.260;2023-04-25T18:11:23;22.40;29.30
75500;DHT22;64076;51.466;7.260;2023-04-25T18:13:49;22.30;29.30
75500;DHT22;64076;51.466;7.260;2023-04-25T18:16:14;22.30;29.30
75500;DHT22;64076;51.466;7.260;2023-04-25T18:18:40;22.30;29.30
75500;DHT22;64076;51.466;7.260;2023-04-25T18:52:50;22.30;29.30
75500;DHT22;64076;51.466;7.260;2023-04-25T18:55:17;22.20;29.40
75500;DHT22;64076;51.466;7.260;2023-04-25T18:57:42;22.20;29.40
75500;DHT22;64076;51.466;7.260;2023-04-25T19:00:08;22.20;29.40
75500;DHT22;64076;51.466;7.260;2023-04-25T19:02:35;22.10;29.50
75500;DHT22;64076;51.466;7.260;2023-04-25T19:05:01;22.10;29.40
75500;DHT22;64076;51.466;7.260;2023-04-25T19:07:27;22.10;29.40
75500;DHT22;64076;51.466;7.260;2023-04-25T19:09:55;22.10;29.50
75500;DHT22;64076;51.466;7.260;2023-04-25T19:12:20;22.10;29.50
75500;DHT22;64076;51.466;7.260;2023-04-25T19:14:46;22.10;29.50
75500;DHT22;64076;51.466;7.260;2023-04-25T19:17:12;22.10;29.50
75500;DHT22;64076;51.466;7.260;2023-04-25T19:19:38;22.10;29.50
75500;DHT22;64076;51.466;7.260;2023-04-25T19:22:03;22.10;29.50
75500;DHT22;64076;51.466;7.260;2023-04-25T19:24:29;22.10;29.50
75500;DHT22;64076;51.466;7.260;2023-04-25T19:26:55;22.10;29.50
75500;DHT22;64076;51.466;7.260;2023-04-25T19:29:20;22.10;29.50
75500;DHT22;64076;51.466;7.260;2023-04-25T19:31:46;22.10;29.50
75500;DHT22;64076;51.466;7.260;2023-04-25T19:34:12;22.10;29.50
75500;DHT22;64076;51.466;7.260;2023-04-25T19:36:39;22.00;29.60
75500;DHT22;64076;51.466;7.260;2023-04-25T19:39:05;22.10;29.50
75500;DHT22;64076;51.466;7.260;2023-04-25T19:41:35;22.00;29.60
75500;DHT22;64076;51.466;7.260;2023-04-25T19:44:02;22.00;29.60
75500;DHT22;64076;51.466;7.260;2023-04-25T19:46:32;22.00;29.60
75500;DHT22;64076;51.466;7.260;2023-04-25T19:48:58;22.00;29.60
75500;DHT22;64076;51.466;7.260;2023-04-25T19:51:27;22.00;29.60
75500;DHT22;64076;51.466;7.260;2023-04-25T19:53:53;22.00;29.60
75500;DHT22;64076;51.466;7.260;2023-04-25T19:58:45;22.00;29.60
75500;DHT22;64076;51.466;7.260;2023-04-25T20:01:12;22.00;29.60
75500;DHT22;64076;51.466;7.260;2023-04-25T20:03:40;21.90;29.70
75500;DHT22;64076;51.466;7.260;2023-04-25T20:06:06;21.90;29.60
75500;DHT22;64076;51.466;7.260;2023-04-25T20:08:33;21.90;29.70
75500;DHT22;64076;51.466;7.260;2023-04-25T20:10:59;21.90;29.70
75500;DHT22;64076;51.466;7.260;2023-04-25T20:13:24;21.90;29.70
75500;DHT22;64076;51.466;7.260;2023-04-25T20:15:50;21.90;29.70
75500;DHT22;64076;51.466;7.260;2023-04-25T20:18:15;21.90;29.70
75500;DHT22;64076;51.466;7.260;2023-04-25T20:20:41;21.90;29.80
75500;DHT22;64076;51.466;7.260;2023-04-25T20:23:06;21.90;29.80
75500;DHT22;64076;51.466;7.260;2023-04-25T20:25:32;21.90;29.80
75500;DHT22;64076;51.466;7.260;2023-04-25T20:27:57;21.90;29.70
75500;DHT22;64076;51.466;7.260;2023-04-25T20:30:23;21.90;29.90
75500;DHT22;64076;51.466;7.260;2023-04-25T20:32:48;21.90;29.80
75500;DHT22;64076;51.466;7.260;2023-04-25T20:35:14;21.90;29.80
75500;DHT22;64076;51.466;7.260;2023-04-25T20:37:40;21.90;29.80
75500;DHT22;64076;51.466;7.260;2023-04-25T20:40:06;21.80;29.80
75500;DHT22;64076;51.466;7.260;2023-04-25T20:42:33;21.80;29.90
75500;DHT22;64076;51.466;7.260;2023-04-25T20:45:00;21.80;29.80
75500;DHT22;64076;51.466;7.260;2023-04-25T20:47:26;21.80;29.90
75500;DHT22;64076;51.466;7.260;2023-04-25T20:49:53;21.80;29.90
75500;DHT22;64076;51.466;7.260;2023-04-25T20:52:18;21.80;29.90
75500;DHT22;64076;51.466;7.260;2023-04-25T20:54:44;21.80;29.90
75500;DHT22;64076;51.466;7.260;2023-04-25T20:57:10;21.80;29.90
75500;DHT22;64076;51.466;7.260;2023-04-25T20:59:36;21.80;29.90
75500;DHT22;64076;51.466;7.260;2023-04-25T21:02:02;21.80;29.90
75500;DHT22;64076;51.466;7.260;2023-04-25T21:04:29;21.80;29.90
75500;DHT22;64076;51.466;7.260;2023-04-25T21:06:54;21.80;30.00
75500;DHT22;64076;51.466;7.260;2023-04-25T21:09:20;21.70;29.90
75500;DHT22;64076;51.466;7.260;2023-04-25T21:11:45;21.70;30.00
75500;DHT22;64076;51.466;7.260;2023-04-25T21:14:11;21.70;30.00
75500;DHT22;64076;51.466;7.260;2023-04-25T21:16:37;21.70;30.00
75500;DHT22;64076;51.466;7.260;2023-04-25T21:19:03;21.70;30.00
75500;DHT22;64076;51.466;7.260;2023-04-25T21:21:29;21.70;30.00
75500;DHT22;64076;51.466;7.260;2023-04-25T21:23:56;21.70;30.00
75500;DHT22;64076;51.466;7.260;2023-04-25T21:26:22;21.70;30.00
75500;DHT22;64076;51.466;7.260;2023-04-25T21:28:47;21.70;30.00
75500;DHT22;64076;51.466;7.260;2023-04-25T21:31:13;21.70;30.00
75500;DHT22;64076;51.466;7.260;2023-04-25T21:33:39;21.70;30.10
75500;DHT22;64076;51.466;7.260;2023-04-25T21:36:05;21.70;30.10
75500;DHT22;64076;51.466;7.260;2023-04-25T21:38:31;21.70;30.10
75500;DHT22;64076;51.466;7.260;2023-04-25T21:40:57;21.70;30.10
75500;DHT22;64076;51.466;7.260;2023-04-25T21:43:22;21.70;30.10
75500;DHT22;64076;51.466;7.260;2023-04-25T21:45:48;21.70;30.10
75500;DHT22;64076;51.466;7.260;2023-04-25T21:48:13;21.60;30.10
75500;DHT22;64076;51.466;7.260;2023-04-25T21:50:39;21.70;30.10
75500;DHT22;64076;51.466;7.260;2023-04-25T21:53:05;21.60;30.10
75500;DHT22;64076;51.466;7.260;2023-04-25T21:55:31;21.60;30.10
75500;DHT22;64076;51.466;7.260;2023-04-25T21:57:56;21.60;30.20
75500;DHT22;64076;51.466;7.260;2023-04-25T22:00:22;21.60;30.20
75500;DHT22;64076;51.466;7.260;2023-04-25T22:02:52;21.60;30.20
75500;DHT22;64076;51.466;7.260;2023-04-25T22:05:18;21.60;30.20
75500;DHT22;64076;51.466;7.260;2023-04-25T22:07:51;21.60;30.20
75500;DHT22;64076;51.466;7.260;2023-04-25T22:10:17;21.60;30.20
75500;DHT22;64076;51.466;7.260;2023-04-25T22:12:44;21.60;30.20
75500;DHT22;64076;51.466;7.260;2023-04-25T22:15:09;21.60;30.30
75500;DHT22;64076;51.466;7.260;2023-04-25T22:17:37;21.60;30.30
75500;DHT22;64076;51.466;7.260;2023-04-25T22:20:03;21.60;30.30
75500;DHT22;64076;51.466;7.260;2023-04-25T22:22:34;21.50;30.40
75500;DHT22;64076;51.466;7.260;2023-04-25T22:24:59;21.50;30.40
75500;DHT22;64076;51.466;7.260;2023-04-25T22:27:25;21.50;30.40
75500;DHT22;64076;51.466;7.260;2023-04-25T22:29:51;21.50;30.40
75500;DHT22;64076;51.466;7.260;2023-04-25T22:32:17;21.50;30.40
75500;DHT22;64076;51.466;7.260;2023-04-25T22:34:43;21.50;30.40
75500;DHT22;64076;51.466;7.260;2023-04-25T22:37:08;21.50;30.40
75500;DHT22;64076;51.466;7.260;2023-04-25T22:39:34;21.50;30.50
75500;DHT22;64076;51.466;7.260;2023-04-25T22:42:00;21.50;30.50
75500;DHT22;64076;51.466;7.260;2023-04-25T22:44:25;21.50;30.50
75500;DHT22;64076;51.466;7.260;2023-04-25T22:46:51;21.50;30.50
75500;DHT22;64076;51.466;7.260;2023-04-25T22:49:17;21.50;30.50
75500;DHT22;64076;51.466;7.260;2023-04-25T22:51:43;21.50;30.50
75500;DHT22;64076;51.466;7.260;2023-04-25T22:54:08;21.50;30.60
75500;DHT22;64076;51.466;7.260;2023-04-25T22:56:34;21.50;30.60
75500;DHT22;64076;51.466;7.260;2023-04-25T22:58:59;21.50;30.60
75500;DHT22;64076;51.466;7.260;2023-04-25T23:01:25;21.50;30.60
75500;DHT22;64076;51.466;7.260;2023-04-25T23:03:52;21.40;30.60
75500;DHT22;64076;51.466;7.260;2023-04-25T23:06:18;21.50;30.60
75500;DHT22;64076;51.466;7.260;2023-04-25T23:08:43;21.40;30.70
75500;DHT22;64076;51.466;7.260;2023-04-25T23:11:09;21.40;30.70
75500;DHT22;64076;51.466;7.260;2023-04-25T23:13:34;21.40;30.70
75500;DHT22;64076;51.466;7.260;2023-04-25T23:16:07;21.40;30.70
75500;DHT22;64076;51.466;7.260;2023-04-25T23:18:36;21.40;30.70
75500;DHT22;64076;51.466;7.260;2023-04-25T23:21:03;21.40;30.70
75500;DHT22;64076;51.466;7.260;2023-04-25T23:23:29;21.40;30.70
75500;DHT22;64076;51.466;7.260;2023-04-25T23:25:54;21.40;30.70
75500;DHT22;64076;51.466;7.260;2023-04-25T23:28:22;21.40;30.80
75500;DHT22;64076;51.466;7.260;2023-04-25T23:30:47;21.40;30.80
75500;DHT22;64076;51.466;7.260;2023-04-25T23:33:13;21.40;30.80
75500;DHT22;64076;51.466;7.260;2023-04-25T23:35:38;21.40;30.80
75500;DHT22;64076;51.466;7.260;2023-04-25T23:38:04;21.40;30.80
75500;DHT22;64076;51.466;7.260;2023-04-25T23:40:29;21.30;30.80
75500;DHT22;64076;51.466;7.260;2023-04-25T23:42:56;21.40;30.80
75500;DHT22;64076;51.466;7.260;2023-04-25T23:45:21;21.30;30.80
75500;DHT22;64076;51.466;7.260;2023-04-25T23:47:47;21.30;30.90
75500;DHT22;64076;51.466;7.260;2023-04-25T23:50:13;21.40;30.90
75500;DHT22;64076;51.466;7.260;2023-04-25T23:52:39;21.30;30.90
75500;DHT22;64076;51.466;7.260;2023-04-25T23:55:04;21.30;30.90
75500;DHT22;64076;51.466;7.260;2023-04-25T23:57:31;21.30;30.90
75500;DHT22;64076;51.466;7.260;2023-04-25T23:59:56;21.30;30.90
